»·PEaware :: SWA671 KSLC-KLAX

SWA671 :: KSLC-KLAX

FLIGHT INFORMATION

Flight Status: Arrived
Operator:
Southwest Airlines
More flights by this operator :: More flights under this callsign
Pilot: Maximilliano F. (23467)
Aircraft: AIRBUS A319
(A319)
More flights by this aircraft type
Origin: KSLC Salt Lake City Intl
United States
Destination: KLAX Los Angeles Intl
United States
More flights between these airports :: More routes between these airports
Route: ZIONZ1 EHK LAKRR Q88 HAKMN ANJLL4
File this flight plan on PilotEdge
Remarks: RMK / SIMBRIEF
Altitude:
(Current/Filed)
36,000ft
Speed:
(Current/Filed)
449kts
Departed: 25-Oct-19 09:35 PM
Arrived: 25-Oct-19 11:00 PM
Distance/Time
Traveled:
512nm/1:25
Distance/Time
To Go:
Arrived

Flight Plot

Page will automatically refresh every two minutes.

Flight plan parsing failed; only flown route is shown


Map Options




Map Legend


Flown Route
Filed Route
Departure Airport
Arrival Airport
Navaid (VOR, NDB)
Fix

Horizontal Profiles

Position Reports

Time Latitude Longitude Heading Altitude Ground
Speed
25-Oct-19 20:24 40.784848 -111.978441 9 4236ft 0kts
25-Oct-19 20:25 40.784848 -111.978441 9 4236ft 0kts
25-Oct-19 20:26 40.784848 -111.978441 9 4236ft 0kts
25-Oct-19 20:27 40.784848 -111.978441 9 4236ft 0kts
25-Oct-19 20:29 40.784848 -111.978441 9 4236ft 0kts
25-Oct-19 20:30 40.784848 -111.978441 9 4236ft 0kts
25-Oct-19 20:31 40.784848 -111.978441 9 4236ft 0kts
25-Oct-19 20:32 40.784848 -111.978441 9 4236ft 0kts
25-Oct-19 20:33 40.784848 -111.978441 9 4236ft 0kts
25-Oct-19 20:34 40.784848 -111.978441 9 4236ft 0kts
25-Oct-19 20:35 40.784848 -111.978441 9 4236ft 0kts
25-Oct-19 20:36 40.784848 -111.978441 9 4236ft 0kts
25-Oct-19 20:37 40.784848 -111.978441 9 4236ft 0kts
25-Oct-19 20:38 40.784848 -111.978441 9 4236ft 0kts
25-Oct-19 20:39 40.784848 -111.978441 9 4236ft 0kts
25-Oct-19 20:40 40.784848 -111.978441 9 4236ft 0kts
25-Oct-19 20:41 40.784848 -111.978441 9 4236ft 0kts
25-Oct-19 20:42 40.784848 -111.978441 9 4236ft 0kts
25-Oct-19 20:43 40.784848 -111.978441 9 4236ft 0kts
25-Oct-19 20:44 40.784848 -111.978441 9 4236ft 0kts
25-Oct-19 20:45 40.784848 -111.978441 9 4236ft 0kts
25-Oct-19 20:46 40.784848 -111.978441 9 4236ft 0kts
25-Oct-19 20:47 40.784848 -111.978441 9 4236ft 0kts
25-Oct-19 20:48 40.784848 -111.978441 9 4236ft 0kts
25-Oct-19 20:49 40.784848 -111.978441 9 4236ft 0kts
25-Oct-19 20:49 40.784848 -111.978441 9 4236ft 0kts
25-Oct-19 20:50 40.784848 -111.978441 9 4236ft 0kts
25-Oct-19 20:52 40.784848 -111.978441 9 4236ft 0kts
25-Oct-19 20:53 40.784848 -111.978441 9 4236ft 0kts
25-Oct-19 20:53 40.784848 -111.978441 9 4236ft 0kts
25-Oct-19 20:55 40.784848 -111.978441 9 4236ft 0kts
25-Oct-19 20:56 40.784848 -111.978441 9 4236ft 0kts
25-Oct-19 20:56 40.784847 -111.978441 9 4236ft 0kts
25-Oct-19 20:58 40.784847 -111.978441 9 4236ft 0kts
25-Oct-19 20:58 40.784847 -111.978441 9 4236ft 0kts
25-Oct-19 20:59 40.784847 -111.978441 9 4236ft 0kts
25-Oct-19 21:00 40.784847 -111.978441 9 4236ft 0kts
25-Oct-19 21:02 40.784847 -111.978441 9 4236ft 0kts
25-Oct-19 21:02 40.784847 -111.978441 9 4236ft 0kts
25-Oct-19 21:03 40.784847 -111.978441 9 4236ft 0kts
25-Oct-19 21:04 40.784847 -111.978441 9 4236ft 0kts
25-Oct-19 21:05 40.784847 -111.978441 9 4236ft 0kts
25-Oct-19 21:06 40.784847 -111.978441 9 4236ft 0kts
25-Oct-19 21:07 40.784838 -111.978443 11 4236ft 1kts
25-Oct-19 21:08 40.784247 -111.978541 8 4236ft 2kts
25-Oct-19 21:09 40.783935 -111.978813 86 4236ft 0kts
25-Oct-19 21:10 40.783935 -111.978812 86 4236ft 0kts
25-Oct-19 21:11 40.783935 -111.978812 86 4236ft 0kts
25-Oct-19 21:12 40.783935 -111.978812 86 4236ft 0kts
25-Oct-19 21:13 40.783935 -111.978812 86 4236ft 0kts
25-Oct-19 21:14 40.783935 -111.978812 86 4236ft 0kts
25-Oct-19 21:15 40.783935 -111.978812 86 4236ft 0kts
25-Oct-19 21:16 40.783934 -111.978812 86 4236ft 0kts
25-Oct-19 21:17 40.783934 -111.978812 86 4236ft 0kts
25-Oct-19 21:18 40.783934 -111.978812 86 4236ft 0kts
25-Oct-19 21:19 40.783934 -111.978812 86 4236ft 0kts
25-Oct-19 21:20 40.784020 -111.977517 56 4236ft 6kts
25-Oct-19 21:21 40.784109 -111.977191 82 4236ft 0kts
25-Oct-19 21:22 40.784271 -111.976615 43 4236ft 6kts
25-Oct-19 21:23 40.787921 -111.976842 354 4236ft 17kts
25-Oct-19 21:24 40.792960 -111.977400 356 4236ft 18kts
25-Oct-19 21:25 40.798297 -111.978055 354 4236ft 19kts
25-Oct-19 21:26 40.803240 -111.978296 9 4236ft 15kts
25-Oct-19 21:27 40.806855 -111.978582 1 4236ft 1kts
25-Oct-19 21:28 40.807100 -111.978504 28 4236ft 0kts
25-Oct-19 21:29 40.807100 -111.978504 28 4236ft 0kts
25-Oct-19 21:30 40.807100 -111.978504 28 4236ft 0kts
25-Oct-19 21:31 40.807100 -111.978504 28 4236ft 0kts
25-Oct-19 21:32 40.807134 -111.978480 28 4236ft 1kts
25-Oct-19 21:33 40.806839 -111.976881 169 4236ft 9kts
25-Oct-19 21:34 40.805628 -111.976763 177 4236ft 41kts
25-Oct-19 21:35 40.764863 -111.971266 176 5993ft 183kts
25-Oct-19 21:36 40.705632 -111.964496 175 9148ft 255kts
25-Oct-19 21:37 40.624354 -111.957702 181 12596ft 334kts
25-Oct-19 21:38 40.527178 -111.952836 180 15278ft 361kts
25-Oct-19 21:39 40.424894 -111.947363 181 17949ft 376kts
25-Oct-19 21:40 40.318315 -111.941691 181 20298ft 391kts
25-Oct-19 21:41 40.208755 -111.948343 191 22381ft 400kts
25-Oct-19 21:42 40.096527 -111.965823 190 24263ft 413kts
25-Oct-19 21:43 39.980768 -111.982602 191 25954ft 425kts
25-Oct-19 21:44 39.861832 -111.999953 192 27443ft 437kts
25-Oct-19 21:45 39.739952 -112.017644 193 28795ft 446kts
25-Oct-19 21:46 39.615082 -112.035790 193 30028ft 455kts
25-Oct-19 21:47 39.488635 -112.054188 193 31137ft 463kts
25-Oct-19 21:48 39.359937 -112.072458 193 32103ft 470kts
25-Oct-19 21:49 39.230856 -112.090795 193 33290ft 467kts
25-Oct-19 21:50 39.107672 -112.129917 209 34276ft 451kts
25-Oct-19 21:51 38.997971 -112.203644 216 35048ft 445kts
25-Oct-19 21:52 38.891439 -112.281169 216 35804ft 445kts
25-Oct-19 21:53 38.783360 -112.359075 216 36214ft 446kts
25-Oct-19 21:54 38.675608 -112.436809 216 36221ft 447kts
25-Oct-19 21:55 38.567212 -112.514788 216 36221ft 447kts
25-Oct-19 21:56 38.459033 -112.592369 216 36221ft 447kts
25-Oct-19 21:57 38.350735 -112.669878 215 36222ft 448kts
25-Oct-19 21:58 38.242364 -112.747422 215 36245ft 447kts
25-Oct-19 21:59 38.133563 -112.824667 215 36263ft 447kts
25-Oct-19 22:00 38.024680 -112.901674 215 36256ft 446kts
25-Oct-19 22:01 37.916079 -112.978258 215 36239ft 449kts
25-Oct-19 22:02 37.807485 -113.054235 215 36228ft 449kts
25-Oct-19 22:03 37.699385 -113.132490 216 36229ft 448kts
25-Oct-19 22:04 37.591688 -113.211369 216 36230ft 447kts
25-Oct-19 22:05 37.484284 -113.289686 216 36230ft 447kts
25-Oct-19 22:06 37.376631 -113.367886 216 36230ft 447kts
25-Oct-19 22:07 37.268697 -113.446041 216 36230ft 448kts
25-Oct-19 22:08 37.161223 -113.523591 215 36214ft 448kts
25-Oct-19 22:09 37.053122 -113.601332 215 36184ft 449kts
25-Oct-19 22:10 36.945411 -113.678707 215 36176ft 449kts
25-Oct-19 22:11 36.837752 -113.755703 214 36176ft 451kts
25-Oct-19 22:12 36.728772 -113.833155 214 36177ft 450kts
25-Oct-19 22:13 36.619877 -113.910439 214 36177ft 451kts
25-Oct-19 22:14 36.510302 -113.987956 214 36184ft 452kts
25-Oct-19 22:15 36.401582 -114.064607 213 36192ft 451kts
25-Oct-19 22:16 36.292760 -114.141112 213 36173ft 451kts
25-Oct-19 22:17 36.183426 -114.217717 213 36148ft 452kts
25-Oct-19 22:18 36.079889 -114.303438 224 36127ft 446kts
25-Oct-19 22:19 35.994341 -114.412245 232 36121ft 442kts
25-Oct-19 22:20 35.912698 -114.525267 232 36117ft 442kts
25-Oct-19 22:21 35.830211 -114.638350 232 36108ft 443kts
25-Oct-19 22:22 35.748916 -114.750267 231 36103ft 442kts
25-Oct-19 22:23 35.666625 -114.862974 231 36103ft 442kts
25-Oct-19 22:24 35.584777 -114.974906 231 36103ft 442kts
25-Oct-19 22:25 35.502510 -115.087038 231 36106ft 442kts
25-Oct-19 22:26 35.418562 -115.196632 230 36099ft 442kts
25-Oct-19 22:27 35.334461 -115.306092 230 36084ft 441kts
25-Oct-19 22:28 35.250213 -115.415552 230 36076ft 442kts
25-Oct-19 22:29 35.165962 -115.524663 230 36075ft 442kts
25-Oct-19 22:30 35.081394 -115.633441 229 36075ft 442kts
25-Oct-19 22:31 34.997422 -115.741007 229 36075ft 443kts
25-Oct-19 22:32 34.912232 -115.849539 229 36075ft 443kts
25-Oct-19 22:33 34.827079 -115.957137 228 36077ft 444kts
25-Oct-19 22:34 34.741828 -116.065216 228 36109ft 443kts
25-Oct-19 22:35 34.657784 -116.172135 228 34216ft 436kts
25-Oct-19 22:36 34.573951 -116.278557 228 33194ft 440kts
25-Oct-19 22:37 34.489820 -116.385018 228 32227ft 438kts
25-Oct-19 22:38 34.409990 -116.496581 240 29085ft 438kts
25-Oct-19 22:39 34.355676 -116.625538 246 28027ft 430kts
25-Oct-19 22:40 34.304532 -116.751437 247 25563ft 419kts
25-Oct-19 22:41 34.254565 -116.875687 247 23584ft 396kts
25-Oct-19 22:42 34.208769 -116.993573 252 21564ft 380kts
25-Oct-19 22:43 34.176184 -117.112497 255 19498ft 367kts
25-Oct-19 22:44 34.144520 -117.228390 254 17435ft 357kts
25-Oct-19 22:45 34.113369 -117.341351 254 15347ft 349kts
25-Oct-19 22:46 34.084750 -117.452397 255 13509ft 334kts
25-Oct-19 22:47 34.057898 -117.558779 254 11706ft 324kts
25-Oct-19 22:48 34.031231 -117.662867 253 9998ft 312kts
25-Oct-19 22:49 34.016065 -117.760178 264 9110ft 279kts
25-Oct-19 22:50 34.007211 -117.851464 263 7901ft 266kts
25-Oct-19 22:51 33.998615 -117.939209 263 6706ft 255kts
25-Oct-19 22:52 33.990633 -118.020325 263 5564ft 246kts
25-Oct-19 22:53 33.982941 -118.097296 263 4343ft 243kts
25-Oct-19 22:55 33.976187 -118.170410 263 3470ft 228kts
25-Oct-19 22:56 33.969091 -118.239076 263 2738ft 208kts
25-Oct-19 22:57 33.962376 -118.303070 263 1775ft 170kts
25-Oct-19 22:58 33.957152 -118.353420 265 951ft 147kts
25-Oct-19 22:59 33.952068 -118.402355 264 148ft 146kts
25-Oct-19 23:00 33.948974 -118.426165 232 120ft 32kts
25-Oct-19 23:01 33.944632 -118.427506 172 110ft 20kts
25-Oct-19 23:02 33.938565 -118.426614 172 108ft 22kts
25-Oct-19 23:03 33.937206 -118.423237 83 114ft 12kts
25-Oct-19 23:04 33.937607 -118.419472 82 124ft 14kts
25-Oct-19 23:05 33.938332 -118.412462 83 131ft 24kts
25-Oct-19 23:06 33.939136 -118.404668 84 129ft 24kts
25-Oct-19 23:07 33.940569 -118.403357 300 127ft 0kts
25-Oct-19 23:08 33.940464 -118.403182 113 126ft 4kts
25-Oct-19 23:09 33.940433 -118.402477 82 126ft 0kts
25-Oct-19 23:10 33.940433 -118.402477 82 126ft 0kts
25-Oct-19 23:11 33.940433 -118.402477 82 126ft 0kts
25-Oct-19 23:12 33.940433 -118.402477 82 126ft 0kts
25-Oct-19 23:13 33.940433 -118.402477 82 126ft 0kts

Navigation Log

Ident Type
Flight plan parsing failed, navigation log unavailable